createdAt,value
2018-07-25T00:04:40.842Z,36.80
2018-07-25T00:09:44.220Z,37.10
2018-07-25T00:14:47.565Z,37.00
2018-07-25T00:24:53.989Z,37.60
2018-07-25T00:29:57.361Z,37.70
2018-07-25T00:35:00.837Z,37.80
2018-07-25T00:40:04.552Z,38.00
2018-07-25T00:45:07.904Z,38.30
2018-07-25T00:50:11.335Z,37.90
2018-07-25T00:55:14.669Z,37.60
2018-07-25T01:00:18.667Z,37.80
2018-07-25T01:05:22.011Z,38.10
2018-07-25T01:10:25.437Z,38.50
2018-07-25T01:15:28.814Z,38.70
2018-07-25T01:20:32.180Z,38.70
2018-07-25T01:25:35.564Z,38.70
2018-07-25T01:30:38.905Z,38.70
2018-07-25T01:35:42.324Z,39.00
2018-07-25T01:40:45.680Z,39.20
2018-07-25T01:45:49.012Z,39.30
2018-07-25T01:50:52.432Z,39.60
2018-07-25T01:55:55.761Z,39.80
2018-07-25T02:00:59.102Z,40.00
2018-07-25T02:06:02.472Z,40.00
2018-07-25T02:11:05.869Z,40.00
2018-07-25T02:16:09.230Z,39.80
2018-07-25T02:21:12.620Z,40.20
2018-07-25T02:26:15.996Z,40.40
2018-07-25T02:31:19.440Z,40.20
2018-07-25T02:36:22.790Z,40.60
2018-07-25T02:41:26.141Z,40.60
2018-07-25T02:46:29.510Z,40.60
2018-07-25T02:51:33.714Z,40.80
2018-07-25T02:56:37.142Z,41.10
2018-07-25T03:01:40.506Z,41.00
2018-07-25T03:06:43.917Z,41.10
2018-07-25T03:11:47.316Z,41.30
2018-07-25T03:16:50.708Z,41.30
2018-07-25T03:21:54.014Z,41.30
2018-07-25T03:26:57.387Z,41.40
2018-07-25T03:32:00.758Z,41.60
2018-07-25T03:37:04.176Z,41.60
2018-07-25T03:42:07.526Z,41.80
2018-07-25T03:47:10.880Z,41.70
2018-07-25T03:57:17.387Z,42.10
2018-07-25T04:02:20.817Z,42.30
2018-07-25T04:07:24.190Z,42.40
2018-07-25T04:12:28.440Z,42.50
2018-07-25T04:17:36.098Z,42.60
2018-07-25T04:22:39.485Z,43.00
2018-07-25T04:27:44.033Z,43.10
2018-07-25T04:32:47.373Z,43.40
2018-07-25T04:37:50.720Z,43.60
2018-07-25T04:42:54.083Z,43.60
2018-07-25T04:47:57.454Z,43.90
2018-07-25T04:53:00.797Z,44.80
2018-07-25T04:58:04.199Z,44.30
2018-07-25T05:03:07.595Z,44.30
2018-07-25T05:08:10.977Z,44.30
2018-07-25T05:13:14.396Z,44.60
2018-07-25T05:18:17.807Z,44.70
2018-07-25T05:23:21.277Z,45.00
2018-07-25T05:28:24.636Z,45.10
2018-07-25T05:33:27.992Z,45.20
2018-07-25T05:38:31.365Z,45.30
2018-07-25T05:43:34.792Z,45.20
2018-07-25T05:48:38.144Z,45.50
2018-07-25T05:53:41.497Z,45.80
2018-07-25T05:58:45.491Z,45.40
2018-07-25T06:03:48.926Z,45.50
2018-07-25T06:08:52.304Z,45.70
2018-07-25T06:13:55.658Z,45.80
2018-07-25T06:18:59.013Z,45.70
2018-07-25T06:24:02.601Z,45.50
2018-07-25T06:29:06.048Z,45.50
2018-07-25T06:34:09.474Z,45.50
2018-07-25T06:39:13.772Z,45.10
2018-07-25T06:44:17.119Z,45.50
2018-07-25T06:49:20.495Z,45.00
2018-07-25T06:54:23.852Z,45.20
2018-07-25T06:59:27.201Z,44.70
2018-07-25T07:04:30.557Z,44.10
2018-07-25T07:09:33.919Z,43.90
2018-07-25T07:14:37.289Z,43.90
2018-07-25T07:19:40.682Z,43.60
2018-07-25T07:24:44.038Z,43.20
2018-07-25T07:29:47.418Z,43.10
2018-07-25T07:34:50.787Z,42.80
2018-07-25T07:39:54.196Z,42.00
2018-07-25T07:50:00.652Z,42.00
2018-07-25T07:55:04.561Z,41.50
2018-07-25T08:00:08.148Z,41.30
2018-07-25T08:05:11.527Z,41.30
2018-07-25T08:10:15.002Z,41.20
2018-07-25T08:15:18.354Z,40.90
2018-07-25T08:20:21.767Z,40.90
2018-07-25T08:25:25.183Z,40.50
2018-07-25T08:30:28.584Z,39.90
2018-07-25T08:35:31.999Z,39.80
2018-07-25T08:40:35.364Z,39.40
2018-07-25T08:45:38.849Z,39.70
2018-07-25T08:50:42.247Z,39.20
2018-07-25T08:55:45.600Z,38.80
2018-07-25T09:00:49.393Z,38.20
2018-07-25T09:05:52.828Z,37.60
2018-07-25T09:10:56.176Z,37.70
2018-07-25T09:15:59.616Z,37.40
2018-07-25T09:21:03.058Z,36.70
2018-07-25T09:26:06.605Z,36.30
2018-07-25T09:31:09.964Z,36.10
2018-07-25T09:36:13.427Z,35.50
2018-07-25T09:41:16.845Z,35.30
2018-07-25T09:46:20.283Z,35.00
2018-07-25T09:51:23.718Z,34.20
2018-07-25T09:56:27.152Z,33.70
2018-07-25T10:01:30.594Z,33.90
2018-07-25T10:06:33.959Z,33.60
2018-07-25T10:11:37.416Z,33.50
2018-07-25T10:16:40.832Z,33.10
2018-07-25T10:21:44.305Z,33.30
2018-07-25T10:26:47.710Z,32.40
2018-07-25T10:31:51.153Z,32.10
2018-07-25T10:36:54.533Z,32.30
2018-07-25T10:41:57.952Z,32.00
2018-07-25T10:47:01.425Z,31.50
2018-07-25T10:52:04.882Z,31.30
2018-07-25T10:57:08.449Z,30.40
2018-07-25T11:02:12.047Z,30.70
2018-07-25T11:07:15.469Z,30.50
2018-07-25T11:12:18.922Z,30.50
2018-07-25T11:17:22.365Z,30.20
2018-07-25T11:22:25.852Z,30.70
2018-07-25T11:27:29.272Z,30.00
2018-07-25T11:32:32.787Z,30.00
2018-07-25T11:37:36.143Z,30.10
2018-07-25T11:42:39.544Z,29.70
2018-07-25T11:47:42.922Z,29.70
2018-07-25T11:52:46.354Z,29.90
2018-07-25T11:57:49.764Z,29.40
2018-07-25T12:02:53.205Z,29.70
2018-07-25T12:07:56.603Z,29.40
2018-07-25T12:13:00.604Z,30.00
2018-07-25T12:18:04.023Z,29.80
2018-07-25T12:23:07.479Z,29.70
2018-07-25T12:28:10.917Z,29.40
2018-07-25T12:33:14.357Z,29.20
2018-07-25T12:38:17.844Z,29.10
2018-07-25T12:43:21.293Z,29.10
2018-07-25T12:48:24.723Z,28.40
2018-07-25T12:53:28.196Z,29.20
2018-07-25T12:58:31.617Z,28.70
2018-07-25T13:03:35.113Z,28.40
2018-07-25T13:08:38.676Z,28.10
2018-07-25T13:13:42.149Z,28.00
2018-07-25T13:18:45.943Z,28.00
2018-07-25T13:23:49.050Z,28.10
2018-07-25T13:28:52.597Z,28.40
2018-07-25T13:33:58.030Z,28.30
2018-07-25T13:44:04.849Z,28.30
2018-07-25T13:49:08.297Z,28.00
2018-07-25T13:54:11.760Z,27.90
2018-07-25T13:59:15.202Z,28.00
2018-07-25T14:04:18.832Z,27.90
2018-07-25T14:09:22.292Z,28.10
2018-07-25T14:14:25.758Z,28.30
2018-07-25T14:19:29.174Z,28.10
2018-07-25T14:24:32.734Z,28.30
2018-07-25T14:29:36.114Z,28.30
2018-07-25T14:34:39.578Z,28.10
2018-07-25T14:39:43.008Z,27.80
2018-07-25T14:44:46.418Z,27.70
2018-07-25T14:49:52.884Z,27.40
2018-07-25T14:54:56.388Z,27.60
2018-07-25T14:59:59.830Z,27.30
2018-07-25T15:05:03.354Z,27.20
2018-07-25T15:10:07.197Z,27.40
2018-07-25T15:20:14.893Z,27.00
2018-07-25T15:25:18.304Z,26.70
2018-07-25T15:30:21.783Z,27.00
2018-07-25T15:35:25.242Z,26.70
2018-07-25T15:40:28.623Z,26.70
2018-07-25T15:45:32.061Z,26.80
2018-07-25T15:50:35.536Z,28.20
2018-07-25T15:55:38.988Z,28.60
2018-07-25T16:00:42.393Z,29.10
2018-07-25T16:05:45.844Z,29.00
2018-07-25T16:10:49.361Z,29.00
2018-07-25T16:15:52.716Z,28.90
2018-07-25T16:25:59.252Z,31.50
2018-07-25T16:31:02.783Z,32.80
2018-07-25T16:36:06.688Z,33.40
2018-07-25T16:41:10.071Z,33.50
2018-07-25T16:46:13.496Z,33.80
2018-07-25T16:51:16.924Z,34.90
2018-07-25T16:56:20.336Z,35.20
2018-07-25T17:01:23.804Z,35.60
2018-07-25T17:06:27.832Z,36.60
2018-07-25T17:11:31.278Z,36.30
2018-07-25T17:16:34.768Z,36.70
2018-07-25T17:21:38.198Z,37.10
2018-07-25T17:26:41.657Z,37.80
2018-07-25T17:31:45.099Z,37.40
2018-07-25T17:36:48.528Z,37.50
2018-07-25T17:41:51.918Z,37.50
2018-07-25T17:46:55.345Z,38.00
2018-07-25T17:51:58.749Z,37.90
2018-07-25T17:57:02.207Z,38.40
2018-07-25T18:02:05.602Z,38.90
2018-07-25T18:07:09.005Z,39.50
2018-07-25T18:12:12.484Z,39.00
2018-07-25T18:17:15.880Z,37.50
2018-07-25T18:22:19.323Z,36.60
2018-07-25T18:27:22.705Z,36.50
2018-07-25T18:32:26.128Z,36.40
2018-07-25T18:37:29.529Z,36.30
2018-07-25T18:42:32.936Z,36.10
2018-07-25T18:47:36.324Z,36.20
2018-07-25T18:52:39.707Z,36.40
2018-07-25T18:57:43.091Z,36.40
2018-07-25T19:02:46.536Z,36.40
2018-07-25T19:07:49.863Z,36.30
2018-07-25T19:17:56.668Z,35.80
2018-07-25T19:23:00.082Z,35.90
2018-07-25T19:28:03.419Z,35.60
2018-07-25T19:33:06.757Z,35.50
2018-07-25T19:38:10.204Z,36.20
2018-07-25T19:43:13.553Z,36.30
2018-07-25T19:48:16.908Z,36.80
2018-07-25T19:53:20.279Z,36.90
2018-07-25T19:58:23.625Z,36.90
2018-07-25T20:03:26.944Z,37.20
2018-07-25T20:08:30.324Z,36.80
2018-07-25T20:13:33.704Z,37.10
2018-07-25T20:18:37.160Z,37.40
2018-07-25T20:23:40.496Z,38.00
2018-07-25T20:28:43.852Z,38.10
2018-07-25T20:33:47.316Z,38.30
2018-07-25T20:38:50.656Z,38.40
2018-07-25T20:43:54.045Z,38.60
2018-07-25T20:48:57.417Z,38.70
2018-07-25T20:54:00.892Z,38.70
2018-07-25T20:59:04.288Z,38.80
2018-07-25T21:04:08.494Z,38.90
2018-07-25T21:14:14.993Z,39.10
2018-07-25T21:19:18.416Z,39.10
2018-07-25T21:24:21.868Z,39.00
2018-07-25T21:29:25.281Z,38.60
2018-07-25T21:34:28.672Z,38.70
2018-07-25T21:39:32.035Z,38.80
2018-07-25T21:44:35.432Z,38.90
2018-07-25T21:49:38.881Z,39.10
2018-07-25T21:54:42.269Z,39.10
2018-07-25T21:59:45.642Z,39.40
2018-07-25T22:04:49.036Z,39.40
2018-07-25T22:09:52.452Z,39.50
2018-07-25T22:14:55.804Z,40.10
2018-07-25T22:19:59.158Z,39.70
2018-07-25T22:25:02.552Z,40.10
2018-07-25T22:30:05.952Z,40.10
2018-07-25T22:35:09.360Z,40.00
2018-07-25T22:45:15.868Z,40.70
2018-07-25T22:50:19.257Z,41.00
2018-07-25T22:55:22.636Z,40.80
2018-07-25T23:00:25.984Z,40.90
2018-07-25T23:05:29.340Z,41.30
2018-07-25T23:10:32.714Z,41.10
2018-07-25T23:15:36.087Z,41.10
2018-07-25T23:20:39.469Z,41.30
2018-07-25T23:25:42.822Z,41.30
2018-07-25T23:30:46.240Z,41.40
2018-07-25T23:35:49.616Z,41.50
2018-07-25T23:45:56.126Z,41.60
2018-07-25T23:50:59.511Z,41.70
2018-07-25T23:56:02.874Z,42.10
